sensor_id;sensor_type;location;lat;lon;timestamp;P1;durP1;ratioP1;P2;durP2;ratioP2
42096;SDS011;27754;45.414;11.084;2024-02-04T00:00:21;107.40;;;65.63;;
42096;SDS011;27754;45.414;11.084;2024-02-04T00:02:48;104.80;;;62.28;;
42096;SDS011;27754;45.414;11.084;2024-02-04T00:05:15;101.40;;;64.07;;
42096;SDS011;27754;45.414;11.084;2024-02-04T00:07:42;106.25;;;63.17;;
42096;SDS011;27754;45.414;11.084;2024-02-04T00:10:09;104.53;;;65.80;;
42096;SDS011;27754;45.414;11.084;2024-02-04T00:12:36;106.65;;;64.55;;
42096;SDS011;27754;45.414;11.084;2024-02-04T00:15:03;100.55;;;60.78;;
42096;SDS011;27754;45.414;11.084;2024-02-04T00:17:31;100.97;;;61.08;;
42096;SDS011;27754;45.414;11.084;2024-02-04T00:20:00;104.93;;;62.35;;
42096;SDS011;27754;45.414;11.084;2024-02-04T00:22:29;102.57;;;64.32;;
42096;SDS011;27754;45.414;11.084;2024-02-04T00:24:56;102.43;;;63.35;;
42096;SDS011;27754;45.414;11.084;2024-02-04T00:27:28;101.55;;;61.92;;
42096;SDS011;27754;45.414;11.084;2024-02-04T00:29:56;104.95;;;63.80;;
42096;SDS011;27754;45.414;11.084;2024-02-04T00:32:23;108.82;;;65.70;;
42096;SDS011;27754;45.414;11.084;2024-02-04T00:34:51;103.90;;;63.05;;
42096;SDS011;27754;45.414;11.084;2024-02-04T00:37:19;105.18;;;66.20;;
42096;SDS011;27754;45.414;11.084;2024-02-04T00:39:46;103.28;;;62.42;;
42096;SDS011;27754;45.414;11.084;2024-02-04T00:42:13;99.40;;;62.22;;
42096;SDS011;27754;45.414;11.084;2024-02-04T00:44:40;103.40;;;61.85;;
42096;SDS011;27754;45.414;11.084;2024-02-04T00:47:06;103.38;;;65.03;;
42096;SDS011;27754;45.414;11.084;2024-02-04T00:49:33;108.32;;;65.60;;
42096;SDS011;27754;45.414;11.084;2024-02-04T00:52:01;104.78;;;62.15;;
42096;SDS011;27754;45.414;11.084;2024-02-04T00:54:28;99.25;;;62.83;;
42096;SDS011;27754;45.414;11.084;2024-02-04T00:56:55;104.65;;;62.17;;
42096;SDS011;27754;45.414;11.084;2024-02-04T00:59:23;102.75;;;62.40;;
42096;SDS011;27754;45.414;11.084;2024-02-04T01:01:50;108.90;;;65.47;;
42096;SDS011;27754;45.414;11.084;2024-02-04T01:04:18;96.38;;;60.78;;
42096;SDS011;27754;45.414;11.084;2024-02-04T01:06:45;102.03;;;60.85;;
42096;SDS011;27754;45.414;11.084;2024-02-04T01:09:27;100.15;;;59.75;;
42096;SDS011;27754;45.414;11.084;2024-02-04T01:11:55;104.80;;;62.17;;
42096;SDS011;27754;45.414;11.084;2024-02-04T01:14:23;102.50;;;60.95;;
42096;SDS011;27754;45.414;11.084;2024-02-04T01:16:50;95.20;;;59.80;;
42096;SDS011;27754;45.414;11.084;2024-02-04T01:19:17;103.25;;;60.53;;
42096;SDS011;27754;45.414;11.084;2024-02-04T01:21:44;95.32;;;61.00;;
42096;SDS011;27754;45.414;11.084;2024-02-04T01:24:12;103.57;;;57.85;;
42096;SDS011;27754;45.414;11.084;2024-02-04T01:26:39;102.55;;;64.45;;
42096;SDS011;27754;45.414;11.084;2024-02-04T01:29:06;105.65;;;62.13;;
42096;SDS011;27754;45.414;11.084;2024-02-04T01:31:33;101.13;;;60.92;;
42096;SDS011;27754;45.414;11.084;2024-02-04T01:34:00;103.78;;;63.35;;
42096;SDS011;27754;45.414;11.084;2024-02-04T01:36:27;103.20;;;61.85;;
42096;SDS011;27754;45.414;11.084;2024-02-04T01:38:54;101.28;;;64.22;;
42096;SDS011;27754;45.414;11.084;2024-02-04T01:41:21;98.45;;;60.15;;
42096;SDS011;27754;45.414;11.084;2024-02-04T01:43:48;102.43;;;60.40;;
42096;SDS011;27754;45.414;11.084;2024-02-04T01:46:15;100.90;;;60.47;;
42096;SDS011;27754;45.414;11.084;2024-02-04T01:48:43;100.25;;;60.40;;
42096;SDS011;27754;45.414;11.084;2024-02-04T01:51:10;91.38;;;56.53;;
42096;SDS011;27754;45.414;11.084;2024-02-04T01:53:38;100.95;;;61.03;;
42096;SDS011;27754;45.414;11.084;2024-02-04T01:56:08;102.50;;;60.28;;
42096;SDS011;27754;45.414;11.084;2024-02-04T01:58:36;97.38;;;57.25;;
42096;SDS011;27754;45.414;11.084;2024-02-04T02:01:03;95.97;;;57.75;;
42096;SDS011;27754;45.414;11.084;2024-02-04T02:03:31;98.05;;;60.10;;
42096;SDS011;27754;45.414;11.084;2024-02-04T02:05:59;101.13;;;62.78;;
42096;SDS011;27754;45.414;11.084;2024-02-04T02:08:26;101.60;;;63.08;;
42096;SDS011;27754;45.414;11.084;2024-02-04T02:10:56;101.20;;;60.60;;
42096;SDS011;27754;45.414;11.084;2024-02-04T02:13:31;108.20;;;61.83;;
42096;SDS011;27754;45.414;11.084;2024-02-04T02:16:18;111.93;;;63.17;;
42096;SDS011;27754;45.414;11.084;2024-02-04T02:18:51;109.72;;;65.53;;
42096;SDS011;27754;45.414;11.084;2024-02-04T02:26:41;100.68;;;61.03;;
42096;SDS011;27754;45.414;11.084;2024-02-04T02:29:08;104.10;;;61.55;;
42096;SDS011;27754;45.414;11.084;2024-02-04T02:31:38;100.05;;;62.35;;
42096;SDS011;27754;45.414;11.084;2024-02-04T02:34:14;102.30;;;62.45;;
42096;SDS011;27754;45.414;11.084;2024-02-04T02:36:49;105.03;;;63.22;;
42096;SDS011;27754;45.414;11.084;2024-02-04T02:39:23;107.63;;;63.53;;
42096;SDS011;27754;45.414;11.084;2024-02-04T02:41:55;104.57;;;61.60;;
42096;SDS011;27754;45.414;11.084;2024-02-04T02:44:24;103.90;;;63.10;;
42096;SDS011;27754;45.414;11.084;2024-02-04T02:46:54;102.68;;;60.20;;
42096;SDS011;27754;45.414;11.084;2024-02-04T02:49:23;103.28;;;61.65;;
42096;SDS011;27754;45.414;11.084;2024-02-04T02:51:51;105.10;;;63.42;;
42096;SDS011;27754;45.414;11.084;2024-02-04T02:54:19;105.45;;;63.67;;
42096;SDS011;27754;45.414;11.084;2024-02-04T02:56:46;108.20;;;64.45;;
42096;SDS011;27754;45.414;11.084;2024-02-04T02:59:13;104.25;;;64.80;;
42096;SDS011;27754;45.414;11.084;2024-02-04T03:01:40;107.35;;;62.72;;
42096;SDS011;27754;45.414;11.084;2024-02-04T03:04:07;97.32;;;61.08;;
42096;SDS011;27754;45.414;11.084;2024-02-04T03:06:34;99.65;;;61.97;;
42096;SDS011;27754;45.414;11.084;2024-02-04T03:09:01;95.35;;;59.05;;
42096;SDS011;27754;45.414;11.084;2024-02-04T03:11:28;99.20;;;61.03;;
42096;SDS011;27754;45.414;11.084;2024-02-04T03:13:55;104.28;;;61.13;;
42096;SDS011;27754;45.414;11.084;2024-02-04T03:16:22;105.30;;;60.67;;
42096;SDS011;27754;45.414;11.084;2024-02-04T03:18:49;105.00;;;63.97;;
42096;SDS011;27754;45.414;11.084;2024-02-04T03:21:16;97.20;;;61.30;;
42096;SDS011;27754;45.414;11.084;2024-02-04T03:23:44;99.28;;;62.38;;
42096;SDS011;27754;45.414;11.084;2024-02-04T03:26:11;103.53;;;62.08;;
42096;SDS011;27754;45.414;11.084;2024-02-04T03:28:46;103.43;;;63.58;;
42096;SDS011;27754;45.414;11.084;2024-02-04T03:31:20;100.85;;;62.47;;
42096;SDS011;27754;45.414;11.084;2024-02-04T03:33:48;93.32;;;56.78;;
42096;SDS011;27754;45.414;11.084;2024-02-04T03:36:18;88.43;;;54.33;;
42096;SDS011;27754;45.414;11.084;2024-02-04T03:38:48;91.82;;;54.15;;
42096;SDS011;27754;45.414;11.084;2024-02-04T03:41:15;90.05;;;55.67;;
42096;SDS011;27754;45.414;11.084;2024-02-04T03:43:43;92.50;;;56.63;;
42096;SDS011;27754;45.414;11.084;2024-02-04T03:46:14;89.00;;;53.85;;
42096;SDS011;27754;45.414;11.084;2024-02-04T03:48:41;97.53;;;57.90;;
42096;SDS011;27754;45.414;11.084;2024-02-04T03:51:16;91.65;;;55.63;;
42096;SDS011;27754;45.414;11.084;2024-02-04T03:53:45;104.85;;;61.40;;
42096;SDS011;27754;45.414;11.084;2024-02-04T03:56:13;108.03;;;63.25;;
42096;SDS011;27754;45.414;11.084;2024-02-04T03:58:40;101.32;;;62.30;;
42096;SDS011;27754;45.414;11.084;2024-02-04T04:01:10;108.80;;;64.07;;
42096;SDS011;27754;45.414;11.084;2024-02-04T04:03:39;97.40;;;58.67;;
42096;SDS011;27754;45.414;11.084;2024-02-04T04:06:08;107.90;;;63.17;;
42096;SDS011;27754;45.414;11.084;2024-02-04T04:08:36;111.78;;;65.72;;
42096;SDS011;27754;45.414;11.084;2024-02-04T04:11:03;109.50;;;65.70;;
42096;SDS011;27754;45.414;11.084;2024-02-04T04:13:31;105.30;;;64.85;;
42096;SDS011;27754;45.414;11.084;2024-02-04T04:16:01;105.97;;;65.00;;
42096;SDS011;27754;45.414;11.084;2024-02-04T04:18:29;99.03;;;61.47;;
42096;SDS011;27754;45.414;11.084;2024-02-04T04:20:56;106.30;;;60.53;;
42096;SDS011;27754;45.414;11.084;2024-02-04T04:23:23;103.40;;;61.40;;
42096;SDS011;27754;45.414;11.084;2024-02-04T04:25:50;110.68;;;66.93;;
42096;SDS011;27754;45.414;11.084;2024-02-04T04:28:17;113.75;;;66.40;;
42096;SDS011;27754;45.414;11.084;2024-02-04T04:30:44;112.13;;;64.70;;
42096;SDS011;27754;45.414;11.084;2024-02-04T04:33:12;100.78;;;62.65;;
42096;SDS011;27754;45.414;11.084;2024-02-04T04:35:40;100.97;;;63.40;;
42096;SDS011;27754;45.414;11.084;2024-02-04T04:38:07;105.85;;;61.42;;
42096;SDS011;27754;45.414;11.084;2024-02-04T04:40:34;107.57;;;64.30;;
42096;SDS011;27754;45.414;11.084;2024-02-04T04:43:01;115.28;;;69.00;;
42096;SDS011;27754;45.414;11.084;2024-02-04T04:45:28;115.35;;;67.70;;
42096;SDS011;27754;45.414;11.084;2024-02-04T04:47:55;119.70;;;67.13;;
42096;SDS011;27754;45.414;11.084;2024-02-04T04:50:22;117.20;;;66.32;;
42096;SDS011;27754;45.414;11.084;2024-02-04T04:52:50;115.10;;;68.35;;
42096;SDS011;27754;45.414;11.084;2024-02-04T04:55:18;112.75;;;66.55;;
42096;SDS011;27754;45.414;11.084;2024-02-04T04:57:45;113.30;;;68.38;;
42096;SDS011;27754;45.414;11.084;2024-02-04T05:00:13;115.80;;;67.70;;
42096;SDS011;27754;45.414;11.084;2024-02-04T05:02:41;115.43;;;68.22;;
42096;SDS011;27754;45.414;11.084;2024-02-04T05:05:10;111.40;;;66.10;;
42096;SDS011;27754;45.414;11.084;2024-02-04T05:07:38;117.70;;;66.50;;
42096;SDS011;27754;45.414;11.084;2024-02-04T05:10:06;105.07;;;63.83;;
42096;SDS011;27754;45.414;11.084;2024-02-04T05:12:35;109.53;;;63.92;;
42096;SDS011;27754;45.414;11.084;2024-02-04T05:15:03;111.20;;;65.60;;
42096;SDS011;27754;45.414;11.084;2024-02-04T05:17:31;105.00;;;64.70;;
42096;SDS011;27754;45.414;11.084;2024-02-04T05:20:00;107.13;;;66.18;;
42096;SDS011;27754;45.414;11.084;2024-02-04T05:22:29;104.28;;;62.55;;
42096;SDS011;27754;45.414;11.084;2024-02-04T05:24:56;112.18;;;66.07;;
42096;SDS011;27754;45.414;11.084;2024-02-04T05:27:23;116.82;;;67.80;;
42096;SDS011;27754;45.414;11.084;2024-02-04T05:29:50;112.38;;;66.00;;
42096;SDS011;27754;45.414;11.084;2024-02-04T05:32:17;114.38;;;66.43;;
42096;SDS011;27754;45.414;11.084;2024-02-04T05:34:44;114.25;;;64.80;;
42096;SDS011;27754;45.414;11.084;2024-02-04T05:37:11;112.68;;;65.25;;
42096;SDS011;27754;45.414;11.084;2024-02-04T05:39:38;110.20;;;64.57;;
42096;SDS011;27754;45.414;11.084;2024-02-04T05:42:05;113.78;;;65.88;;
42096;SDS011;27754;45.414;11.084;2024-02-04T05:44:32;117.93;;;67.32;;
42096;SDS011;27754;45.414;11.084;2024-02-04T05:46:59;118.93;;;66.35;;
42096;SDS011;27754;45.414;11.084;2024-02-04T05:49:26;109.80;;;64.40;;
42096;SDS011;27754;45.414;11.084;2024-02-04T05:51:54;110.53;;;64.30;;
42096;SDS011;27754;45.414;11.084;2024-02-04T05:54:21;112.95;;;64.38;;
42096;SDS011;27754;45.414;11.084;2024-02-04T05:56:47;110.65;;;65.50;;
42096;SDS011;27754;45.414;11.084;2024-02-04T05:59:14;105.35;;;60.47;;
42096;SDS011;27754;45.414;11.084;2024-02-04T06:01:42;101.57;;;58.10;;
42096;SDS011;27754;45.414;11.084;2024-02-04T06:04:11;104.18;;;59.42;;
42096;SDS011;27754;45.414;11.084;2024-02-04T06:06:38;105.60;;;62.05;;
42096;SDS011;27754;45.414;11.084;2024-02-04T06:09:05;102.95;;;62.83;;
42096;SDS011;27754;45.414;11.084;2024-02-04T06:11:33;108.93;;;63.72;;
42096;SDS011;27754;45.414;11.084;2024-02-04T06:14:00;106.32;;;61.22;;
42096;SDS011;27754;45.414;11.084;2024-02-04T06:16:27;109.32;;;64.30;;
42096;SDS011;27754;45.414;11.084;2024-02-04T06:18:54;108.45;;;64.57;;
42096;SDS011;27754;45.414;11.084;2024-02-04T06:21:23;111.22;;;64.07;;
42096;SDS011;27754;45.414;11.084;2024-02-04T06:23:50;111.10;;;63.40;;
42096;SDS011;27754;45.414;11.084;2024-02-04T06:26:17;106.75;;;63.92;;
42096;SDS011;27754;45.414;11.084;2024-02-04T06:28:44;98.20;;;59.25;;
42096;SDS011;27754;45.414;11.084;2024-02-04T06:31:13;103.80;;;61.08;;
42096;SDS011;27754;45.414;11.084;2024-02-04T06:33:40;102.80;;;61.50;;
42096;SDS011;27754;45.414;11.084;2024-02-04T06:36:10;97.95;;;60.13;;
42096;SDS011;27754;45.414;11.084;2024-02-04T06:38:37;104.53;;;62.75;;
42096;SDS011;27754;45.414;11.084;2024-02-04T06:41:05;109.13;;;62.90;;
42096;SDS011;27754;45.414;11.084;2024-02-04T06:43:32;111.75;;;63.70;;
42096;SDS011;27754;45.414;11.084;2024-02-04T06:46:02;107.28;;;61.72;;
42096;SDS011;27754;45.414;11.084;2024-02-04T06:48:30;101.85;;;61.22;;
42096;SDS011;27754;45.414;11.084;2024-02-04T06:50:57;103.40;;;60.95;;
42096;SDS011;27754;45.414;11.084;2024-02-04T06:53:24;97.63;;;59.42;;
42096;SDS011;27754;45.414;11.084;2024-02-04T06:55:51;91.25;;;55.72;;
42096;SDS011;27754;45.414;11.084;2024-02-04T06:58:18;98.80;;;58.88;;
42096;SDS011;27754;45.414;11.084;2024-02-04T07:00:45;103.75;;;60.92;;
42096;SDS011;27754;45.414;11.084;2024-02-04T07:03:13;107.38;;;60.35;;
42096;SDS011;27754;45.414;11.084;2024-02-04T07:05:41;105.20;;;61.58;;
42096;SDS011;27754;45.414;11.084;2024-02-04T07:08:09;93.35;;;56.25;;
42096;SDS011;27754;45.414;11.084;2024-02-04T07:10:36;94.05;;;54.10;;
42096;SDS011;27754;45.414;11.084;2024-02-04T07:13:03;100.85;;;57.95;;
42096;SDS011;27754;45.414;11.084;2024-02-04T07:15:30;99.18;;;56.88;;
42096;SDS011;27754;45.414;11.084;2024-02-04T07:17:57;100.30;;;58.38;;
42096;SDS011;27754;45.414;11.084;2024-02-04T07:20:24;98.45;;;56.92;;
42096;SDS011;27754;45.414;11.084;2024-02-04T07:22:51;101.53;;;58.97;;
42096;SDS011;27754;45.414;11.084;2024-02-04T07:25:18;103.85;;;58.65;;
42096;SDS011;27754;45.414;11.084;2024-02-04T07:27:46;104.75;;;60.67;;
42096;SDS011;27754;45.414;11.084;2024-02-04T07:30:13;103.10;;;60.22;;
42096;SDS011;27754;45.414;11.084;2024-02-04T07:32:40;106.53;;;61.28;;
42096;SDS011;27754;45.414;11.084;2024-02-04T07:35:07;107.82;;;61.55;;
42096;SDS011;27754;45.414;11.084;2024-02-04T07:37:35;100.53;;;60.28;;
42096;SDS011;27754;45.414;11.084;2024-02-04T07:40:03;100.25;;;59.28;;
42096;SDS011;27754;45.414;11.084;2024-02-04T07:42:31;99.47;;;60.22;;
42096;SDS011;27754;45.414;11.084;2024-02-04T07:44:59;101.28;;;61.00;;
42096;SDS011;27754;45.414;11.084;2024-02-04T07:47:26;97.00;;;57.53;;
42096;SDS011;27754;45.414;11.084;2024-02-04T07:49:53;102.07;;;59.72;;
42096;SDS011;27754;45.414;11.084;2024-02-04T07:52:20;97.88;;;59.53;;
42096;SDS011;27754;45.414;11.084;2024-02-04T07:54:47;107.90;;;62.63;;
42096;SDS011;27754;45.414;11.084;2024-02-04T07:57:14;105.00;;;59.53;;
42096;SDS011;27754;45.414;11.084;2024-02-04T07:59:41;98.93;;;60.05;;
42096;SDS011;27754;45.414;11.084;2024-02-04T08:02:08;92.50;;;56.42;;
42096;SDS011;27754;45.414;11.084;2024-02-04T08:04:35;93.20;;;55.85;;
42096;SDS011;27754;45.414;11.084;2024-02-04T08:07:02;99.93;;;58.05;;
42096;SDS011;27754;45.414;11.084;2024-02-04T08:09:29;101.72;;;62.72;;
42096;SDS011;27754;45.414;11.084;2024-02-04T08:11:56;99.05;;;59.75;;
42096;SDS011;27754;45.414;11.084;2024-02-04T08:14:25;95.43;;;58.83;;
42096;SDS011;27754;45.414;11.084;2024-02-04T08:16:52;100.25;;;61.20;;
42096;SDS011;27754;45.414;11.084;2024-02-04T08:19:19;99.40;;;60.63;;
42096;SDS011;27754;45.414;11.084;2024-02-04T08:21:46;96.53;;;58.33;;
42096;SDS011;27754;45.414;11.084;2024-02-04T08:24:13;102.28;;;60.22;;
42096;SDS011;27754;45.414;11.084;2024-02-04T08:26:41;96.90;;;58.67;;
42096;SDS011;27754;45.414;11.084;2024-02-04T08:29:07;99.97;;;58.95;;
42096;SDS011;27754;45.414;11.084;2024-02-04T08:31:34;102.50;;;61.38;;
42096;SDS011;27754;45.414;11.084;2024-02-04T08:34:01;93.78;;;58.85;;
42096;SDS011;27754;45.414;11.084;2024-02-04T08:36:29;105.90;;;60.92;;
42096;SDS011;27754;45.414;11.084;2024-02-04T08:38:59;98.70;;;60.88;;
42096;SDS011;27754;45.414;11.084;2024-02-04T08:41:25;98.38;;;60.35;;
42096;SDS011;27754;45.414;11.084;2024-02-04T08:43:52;98.70;;;63.20;;
42096;SDS011;27754;45.414;11.084;2024-02-04T08:46:19;100.10;;;64.03;;
42096;SDS011;27754;45.414;11.084;2024-02-04T08:48:46;101.70;;;64.97;;
42096;SDS011;27754;45.414;11.084;2024-02-04T08:51:13;101.18;;;62.55;;
42096;SDS011;27754;45.414;11.084;2024-02-04T08:53:42;98.63;;;63.63;;
42096;SDS011;27754;45.414;11.084;2024-02-04T08:56:09;102.55;;;66.00;;
42096;SDS011;27754;45.414;11.084;2024-02-04T08:58:36;104.72;;;66.68;;
42096;SDS011;27754;45.414;11.084;2024-02-04T09:01:04;108.00;;;67.93;;
42096;SDS011;27754;45.414;11.084;2024-02-04T09:03:32;108.03;;;68.65;;
42096;SDS011;27754;45.414;11.084;2024-02-04T09:06:00;106.05;;;69.18;;
42096;SDS011;27754;45.414;11.084;2024-02-04T09:08:27;107.43;;;67.30;;
42096;SDS011;27754;45.414;11.084;2024-02-04T09:10:54;104.75;;;67.72;;
42096;SDS011;27754;45.414;11.084;2024-02-04T09:13:21;111.40;;;71.00;;
42096;SDS011;27754;45.414;11.084;2024-02-04T09:15:49;115.68;;;72.20;;
42096;SDS011;27754;45.414;11.084;2024-02-04T09:18:17;110.70;;;69.47;;
42096;SDS011;27754;45.414;11.084;2024-02-04T09:20:44;102.85;;;66.40;;
42096;SDS011;27754;45.414;11.084;2024-02-04T09:23:11;107.43;;;66.47;;
42096;SDS011;27754;45.414;11.084;2024-02-04T09:25:39;114.75;;;72.20;;
42096;SDS011;27754;45.414;11.084;2024-02-04T09:28:05;109.10;;;71.13;;
42096;SDS011;27754;45.414;11.084;2024-02-04T09:30:33;109.10;;;69.60;;
42096;SDS011;27754;45.414;11.084;2024-02-04T09:33:00;111.60;;;69.78;;
42096;SDS011;27754;45.414;11.084;2024-02-04T09:35:27;110.90;;;70.75;;
42096;SDS011;27754;45.414;11.084;2024-02-04T09:37:55;112.20;;;70.90;;
42096;SDS011;27754;45.414;11.084;2024-02-04T09:40:22;109.88;;;71.95;;
42096;SDS011;27754;45.414;11.084;2024-02-04T09:42:49;113.82;;;72.68;;
42096;SDS011;27754;45.414;11.084;2024-02-04T09:45:18;120.78;;;73.95;;
42096;SDS011;27754;45.414;11.084;2024-02-04T09:47:46;116.93;;;75.43;;
42096;SDS011;27754;45.414;11.084;2024-02-04T09:50:16;110.85;;;72.47;;
42096;SDS011;27754;45.414;11.084;2024-02-04T09:52:50;116.65;;;77.70;;
42096;SDS011;27754;45.414;11.084;2024-02-04T09:55:21;118.50;;;76.90;;
42096;SDS011;27754;45.414;11.084;2024-02-04T09:57:49;120.15;;;77.38;;
42096;SDS011;27754;45.414;11.084;2024-02-04T10:00:18;118.35;;;79.72;;
42096;SDS011;27754;45.414;11.084;2024-02-04T10:02:47;120.90;;;76.78;;
42096;SDS011;27754;45.414;11.084;2024-02-04T10:05:15;112.82;;;74.72;;
42096;SDS011;27754;45.414;11.084;2024-02-04T10:07:42;113.70;;;76.55;;
42096;SDS011;27754;45.414;11.084;2024-02-04T10:10:10;120.18;;;76.65;;
42096;SDS011;27754;45.414;11.084;2024-02-04T10:12:39;116.93;;;75.95;;
42096;SDS011;27754;45.414;11.084;2024-02-04T10:15:08;118.57;;;79.55;;
42096;SDS011;27754;45.414;11.084;2024-02-04T10:17:35;121.47;;;77.30;;
42096;SDS011;27754;45.414;11.084;2024-02-04T10:20:02;121.32;;;78.47;;
42096;SDS011;27754;45.414;11.084;2024-02-04T10:22:30;118.45;;;76.07;;
42096;SDS011;27754;45.414;11.084;2024-02-04T10:25:09;123.43;;;80.30;;
42096;SDS011;27754;45.414;11.084;2024-02-04T10:27:41;115.68;;;76.55;;
42096;SDS011;27754;45.414;11.084;2024-02-04T10:30:09;113.15;;;74.78;;
42096;SDS011;27754;45.414;11.084;2024-02-04T10:32:36;113.68;;;75.72;;
42096;SDS011;27754;45.414;11.084;2024-02-04T10:35:04;115.82;;;75.43;;
42096;SDS011;27754;45.414;11.084;2024-02-04T10:37:31;113.20;;;74.90;;
42096;SDS011;27754;45.414;11.084;2024-02-04T10:39:59;107.93;;;72.45;;
42096;SDS011;27754;45.414;11.084;2024-02-04T10:42:26;118.20;;;74.15;;
42096;SDS011;27754;45.414;11.084;2024-02-04T10:44:55;116.97;;;76.43;;
42096;SDS011;27754;45.414;11.084;2024-02-04T10:47:28;116.90;;;76.38;;
42096;SDS011;27754;45.414;11.084;2024-02-04T10:49:59;116.20;;;73.68;;
42096;SDS011;27754;45.414;11.084;2024-02-04T10:52:35;114.93;;;72.18;;
42096;SDS011;27754;45.414;11.084;2024-02-04T10:55:07;110.93;;;72.10;;
42096;SDS011;27754;45.414;11.084;2024-02-04T10:57:38;112.80;;;74.75;;
42096;SDS011;27754;45.414;11.084;2024-02-04T11:00:07;115.20;;;74.95;;
42096;SDS011;27754;45.414;11.084;2024-02-04T11:02:38;111.97;;;74.95;;
42096;SDS011;27754;45.414;11.084;2024-02-04T11:05:09;113.45;;;73.03;;
42096;SDS011;27754;45.414;11.084;2024-02-04T11:07:37;110.97;;;71.60;;
42096;SDS011;27754;45.414;11.084;2024-02-04T11:10:04;111.28;;;72.80;;
42096;SDS011;27754;45.414;11.084;2024-02-04T11:12:33;112.45;;;72.38;;
42096;SDS011;27754;45.414;11.084;2024-02-04T11:15:03;104.72;;;70.22;;
42096;SDS011;27754;45.414;11.084;2024-02-04T11:17:48;112.65;;;73.15;;
42096;SDS011;27754;45.414;11.084;2024-02-04T11:20:46;111.75;;;73.63;;
42096;SDS011;27754;45.414;11.084;2024-02-04T11:26:15;110.80;;;73.38;;
42096;SDS011;27754;45.414;11.084;2024-02-04T11:28:44;109.07;;;74.45;;
42096;SDS011;27754;45.414;11.084;2024-02-04T11:31:14;115.28;;;73.70;;
42096;SDS011;27754;45.414;11.084;2024-02-04T11:33:44;117.50;;;77.63;;
42096;SDS011;27754;45.414;11.084;2024-02-04T11:36:12;126.38;;;82.15;;
42096;SDS011;27754;45.414;11.084;2024-02-04T11:38:41;126.25;;;83.13;;
42096;SDS011;27754;45.414;11.084;2024-02-04T11:41:08;121.00;;;83.18;;
42096;SDS011;27754;45.414;11.084;2024-02-04T11:43:38;123.20;;;84.13;;
42096;SDS011;27754;45.414;11.084;2024-02-04T11:46:06;134.93;;;87.32;;
42096;SDS011;27754;45.414;11.084;2024-02-04T11:48:33;128.90;;;86.00;;
42096;SDS011;27754;45.414;11.084;2024-02-04T11:51:03;127.00;;;85.65;;
42096;SDS011;27754;45.414;11.084;2024-02-04T11:53:32;127.15;;;86.75;;
42096;SDS011;27754;45.414;11.084;2024-02-04T11:56:00;127.57;;;87.05;;
42096;SDS011;27754;45.414;11.084;2024-02-04T11:58:29;129.73;;;86.95;;
42096;SDS011;27754;45.414;11.084;2024-02-04T12:00:58;130.73;;;87.82;;
42096;SDS011;27754;45.414;11.084;2024-02-04T12:03:29;135.38;;;90.03;;
42096;SDS011;27754;45.414;11.084;2024-02-04T12:05:57;132.30;;;88.07;;
42096;SDS011;27754;45.414;11.084;2024-02-04T12:08:26;130.80;;;87.72;;
42096;SDS011;27754;45.414;11.084;2024-02-04T12:10:54;126.00;;;88.18;;
42096;SDS011;27754;45.414;11.084;2024-02-04T12:13:21;131.48;;;88.85;;
42096;SDS011;27754;45.414;11.084;2024-02-04T12:15:48;135.68;;;90.40;;
42096;SDS011;27754;45.414;11.084;2024-02-04T12:18:15;133.00;;;86.80;;
42096;SDS011;27754;45.414;11.084;2024-02-04T12:20:46;126.68;;;84.45;;
42096;SDS011;27754;45.414;11.084;2024-02-04T12:23:17;125.20;;;86.25;;
42096;SDS011;27754;45.414;11.084;2024-02-04T12:25:45;130.75;;;88.30;;
42096;SDS011;27754;45.414;11.084;2024-02-04T12:28:12;129.57;;;88.47;;
42096;SDS011;27754;45.414;11.084;2024-02-04T12:30:41;123.18;;;85.82;;
42096;SDS011;27754;45.414;11.084;2024-02-04T12:33:18;134.07;;;89.93;;
42096;SDS011;27754;45.414;11.084;2024-02-04T12:35:48;129.93;;;87.78;;
42096;SDS011;27754;45.414;11.084;2024-02-04T12:38:17;128.98;;;85.72;;
42096;SDS011;27754;45.414;11.084;2024-02-04T12:40:44;124.30;;;85.32;;
42096;SDS011;27754;45.414;11.084;2024-02-04T12:43:11;126.38;;;84.60;;
42096;SDS011;27754;45.414;11.084;2024-02-04T12:45:39;128.88;;;85.15;;
42096;SDS011;27754;45.414;11.084;2024-02-04T12:48:06;123.28;;;85.57;;
42096;SDS011;27754;45.414;11.084;2024-02-04T12:50:36;128.10;;;86.72;;
42096;SDS011;27754;45.414;11.084;2024-02-04T12:53:07;125.78;;;84.80;;
42096;SDS011;27754;45.414;11.084;2024-02-04T12:55:35;127.70;;;87.47;;
42096;SDS011;27754;45.414;11.084;2024-02-04T12:58:10;129.57;;;88.60;;
42096;SDS011;27754;45.414;11.084;2024-02-04T13:00:39;126.53;;;84.70;;
42096;SDS011;27754;45.414;11.084;2024-02-04T13:03:07;129.80;;;88.82;;
42096;SDS011;27754;45.414;11.084;2024-02-04T13:05:35;129.73;;;88.28;;
42096;SDS011;27754;45.414;11.084;2024-02-04T13:08:03;132.82;;;88.35;;
42096;SDS011;27754;45.414;11.084;2024-02-04T13:10:33;129.35;;;88.95;;
42096;SDS011;27754;45.414;11.084;2024-02-04T13:13:02;129.40;;;90.00;;
42096;SDS011;27754;45.414;11.084;2024-02-04T13:15:39;132.73;;;89.85;;
42096;SDS011;27754;45.414;11.084;2024-02-04T13:18:08;135.43;;;91.72;;
42096;SDS011;27754;45.414;11.084;2024-02-04T13:20:38;132.90;;;89.40;;
42096;SDS011;27754;45.414;11.084;2024-02-04T13:23:07;133.82;;;91.97;;
42096;SDS011;27754;45.414;11.084;2024-02-04T13:25:34;133.73;;;91.93;;
42096;SDS011;27754;45.414;11.084;2024-02-04T13:28:02;133.05;;;92.78;;
42096;SDS011;27754;45.414;11.084;2024-02-04T13:30:30;134.68;;;93.00;;
42096;SDS011;27754;45.414;11.084;2024-02-04T13:32:58;133.20;;;90.75;;
42096;SDS011;27754;45.414;11.084;2024-02-04T13:35:28;133.80;;;91.32;;
42096;SDS011;27754;45.414;11.084;2024-02-04T13:37:56;136.05;;;92.28;;
42096;SDS011;27754;45.414;11.084;2024-02-04T13:40:23;138.10;;;94.25;;
42096;SDS011;27754;45.414;11.084;2024-02-04T13:42:51;137.57;;;91.10;;
42096;SDS011;27754;45.414;11.084;2024-02-04T13:45:18;134.68;;;90.85;;
42096;SDS011;27754;45.414;11.084;2024-02-04T13:47:46;131.77;;;91.68;;
42096;SDS011;27754;45.414;11.084;2024-02-04T13:50:13;132.20;;;92.57;;
42096;SDS011;27754;45.414;11.084;2024-02-04T13:52:41;132.82;;;89.90;;
42096;SDS011;27754;45.414;11.084;2024-02-04T13:55:08;132.82;;;91.88;;
42096;SDS011;27754;45.414;11.084;2024-02-04T13:57:36;132.85;;;90.65;;
42096;SDS011;27754;45.414;11.084;2024-02-04T14:00:04;140.10;;;94.72;;
42096;SDS011;27754;45.414;11.084;2024-02-04T14:02:33;136.23;;;92.50;;
42096;SDS011;27754;45.414;11.084;2024-02-04T14:05:01;134.93;;;91.50;;
42096;SDS011;27754;45.414;11.084;2024-02-04T14:07:28;142.10;;;94.00;;
42096;SDS011;27754;45.414;11.084;2024-02-04T14:09:55;133.63;;;92.40;;
42096;SDS011;27754;45.414;11.084;2024-02-04T14:12:22;139.48;;;96.47;;